createdAt,value
2018-02-11T01:16:19.206Z,1.30
2018-02-11T01:18:45.644Z,-0.10
2018-02-11T01:21:12.090Z,-0.10
2018-02-11T01:23:38.596Z,0.00
2018-02-11T01:26:04.999Z,0.10
2018-02-11T01:28:31.458Z,0.10
2018-02-11T01:30:57.917Z,0.20
2018-02-11T01:33:24.504Z,0.20
2018-02-11T01:35:51.684Z,0.30
2018-02-11T01:38:18.973Z,0.30
2018-02-11T01:40:45.388Z,0.30
2018-02-11T01:43:12.546Z,0.40
2018-02-11T01:45:39.784Z,0.50
2018-02-11T01:48:06.328Z,0.50
2018-02-11T01:50:33.612Z,0.50
2018-02-11T01:53:00.024Z,0.50
2018-02-11T01:55:26.506Z,0.50
2018-02-11T01:57:52.907Z,0.50
2018-02-11T02:00:19.447Z,0.40
2018-02-11T02:02:45.912Z,0.40
2018-02-11T02:05:12.387Z,0.50
2018-02-11T02:07:38.790Z,0.50
2018-02-11T02:10:05.275Z,0.50
2018-02-11T02:12:31.835Z,0.60
2018-02-11T02:14:58.488Z,0.60
2018-02-11T02:17:25.013Z,0.60
2018-02-11T02:19:51.535Z,0.60
2018-02-11T02:22:17.977Z,0.70
2018-02-11T02:24:44.472Z,0.80
2018-02-11T02:27:10.876Z,0.90
2018-02-11T02:29:37.379Z,0.90
2018-02-11T02:32:03.913Z,0.90
2018-02-11T02:34:30.341Z,0.90
2018-02-11T02:36:56.825Z,1.00
2018-02-11T02:39:23.250Z,1.00
2018-02-11T02:41:49.694Z,1.00
2018-02-11T02:44:16.192Z,1.00
2018-02-11T02:46:43.352Z,1.10
2018-02-11T02:49:10.732Z,1.20
2018-02-11T02:51:37.248Z,1.20
2018-02-11T02:54:03.796Z,1.20
2018-02-11T02:56:30.227Z,1.30
2018-02-11T02:58:56.692Z,1.30
